Time;durP1;ratioP1;P1;durP2;ratioP2;P2;SDS_P1;SDS_P2;PMS_P1;PMS_P2;Temp;Humidity;BMP_temperature;BMP_pressure;BME280_temperature;BME280_humidity;BME280_pressure;Samples;Min_cycle;Max_cycle;Signal;HPM_P1;HPM_P2
2023/01/29 00:01:47;;;;;;;17.33;8.27;;;4.00;99.90;;;;;;4988373;28;20034;-72
2023/01/29 00:04:13;;;;;;;21.48;6.88;;;4.00;99.90;;;;;;4988495;28;20030;-71
2023/01/29 00:06:39;;;;;;;18.63;7.18;;;4.00;99.90;;;;;;4986362;28;20124;-72
2023/01/29 00:09:04;;;;;;;16.70;7.43;;;4.00;99.90;;;;;;4988258;28;20030;-72
2023/01/29 00:11:30;;;;;;;15.80;6.57;;;4.10;99.90;;;;;;4989577;28;20034;-72
2023/01/29 00:13:56;;;;;;;15.13;6.93;;;4.00;99.90;;;;;;4985843;28;20054;-72
2023/01/29 00:16:22;;;;;;;16.88;6.90;;;4.00;99.90;;;;;;4993905;28;20041;-72
2023/01/29 00:18:48;;;;;;;15.13;6.68;;;4.10;99.90;;;;;;4994301;28;21427;-72
2023/01/29 00:21:16;;;;;;;15.23;6.53;;;4.10;99.90;;;;;;4993751;28;20502;-72
2023/01/29 00:23:42;;;;;;;17.02;6.85;;;4.00;99.90;;;;;;4992254;28;20045;-71
2023/01/29 00:26:09;;;;;;;13.50;6.28;;;4.00;99.90;;;;;;4987476;28;20042;-71
2023/01/29 00:28:36;;;;;;;14.35;7.30;;;4.00;99.90;;;;;;5004571;28;20803;-72
2023/01/29 00:31:16;;;;;;;17.55;7.75;;;4.00;99.90;;;;;;4994607;28;20034;-72
2023/01/29 00:33:42;;;;;;;14.10;6.35;;;4.00;99.90;;;;;;5006105;28;20494;-72
2023/01/29 00:36:10;;;;;;;16.60;7.13;;;4.00;99.90;;;;;;4994667;28;20042;-72
2023/01/29 00:38:36;;;;;;;16.70;7.53;;;4.00;99.90;;;;;;4990922;28;20045;-72
2023/01/29 00:46:42;;;;;;;16.00;7.35;;;4.10;99.90;;;;;;4991284;28;20080;-71
2023/01/29 00:49:09;;;;;;;17.45;6.97;;;4.10;99.90;;;;;;4994004;28;20107;-71
2023/01/29 00:51:36;;;;;;;15.45;7.10;;;4.10;99.90;;;;;;4993735;28;20498;-71
2023/01/29 00:54:05;;;;;;;14.93;6.25;;;4.10;99.90;;;;;;4993987;28;20087;-72
2023/01/29 00:56:34;;;;;;;15.98;7.72;;;4.10;99.90;;;;;;4990418;28;20082;-73
2023/01/29 00:59:00;;;;;;;14.85;7.22;;;4.10;99.90;;;;;;4994418;28;20510;-72
2023/01/29 01:04:10;;;;;;;16.38;8.02;;;4.00;99.90;;;;;;4990605;28;20041;-71
2023/01/29 01:06:38;;;;;;;18.75;7.93;;;4.00;99.90;;;;;;4992526;28;20058;-71
2023/01/29 01:11:48;;;;;;;19.77;7.60;;;4.10;99.90;;;;;;4992662;28;20156;-72
2023/01/29 01:14:13;;;;;;;15.63;7.35;;;4.00;99.90;;;;;;4993076;28;20121;-72
2023/01/29 01:16:39;;;;;;;15.60;7.63;;;4.00;99.90;;;;;;4993950;28;20418;-72
2023/01/29 01:19:04;;;;;;;17.92;7.10;;;4.00;99.90;;;;;;4992625;28;20045;-71
2023/01/29 01:21:31;;;;;;;16.15;8.05;;;4.00;99.90;;;;;;4992244;28;20046;-72
2023/01/29 01:23:57;;;;;;;16.73;7.30;;;4.00;99.90;;;;;;4989812;28;20129;-72
2023/01/29 01:26:23;;;;;;;13.20;6.80;;;4.00;99.90;;;;;;4990026;28;20109;-71
2023/01/29 01:28:48;;;;;;;19.27;8.05;;;4.00;99.90;;;;;;4989273;28;20509;-72
2023/01/29 01:31:14;;;;;;;14.77;7.45;;;4.00;99.90;;;;;;4991011;28;20038;-72
2023/01/29 01:33:40;;;;;;;16.13;6.93;;;4.00;99.90;;;;;;4990552;28;20498;-72
2023/01/29 01:36:09;;;;;;;18.75;7.28;;;4.00;99.90;;;;;;4989548;28;20136;-71
2023/01/29 01:38:43;;;;;;;13.60;7.00;;;4.00;99.90;;;;;;4991099;28;20038;-72
2023/01/29 01:41:11;;;;;;;14.18;6.15;;;4.00;99.90;;;;;;4990112;28;20041;-71
2023/01/29 01:43:48;;;;;;;15.45;6.70;;;4.00;99.90;;;;;;4990376;28;20042;-72
2023/01/29 01:46:14;;;;;;;17.58;7.35;;;4.00;99.90;;;;;;4990730;28;20034;-73
2023/01/29 01:48:40;;;;;;;14.25;6.80;;;4.00;99.90;;;;;;4989291;28;20038;-71
2023/01/29 01:51:06;;;;;;;15.98;7.00;;;4.10;99.90;;;;;;4988868;28;20136;-71
2023/01/29 01:53:37;;;;;;;14.57;7.07;;;4.00;99.90;;;;;;4990630;28;20042;-72
2023/01/29 01:56:09;;;;;;;13.40;6.65;;;4.10;99.90;;;;;;4988555;28;20498;-72
2023/01/29 01:58:42;;;;;;;15.82;6.40;;;4.10;99.90;;;;;;4989053;28;20046;-71
2023/01/29 02:01:08;;;;;;;12.93;6.03;;;4.10;99.90;;;;;;4987462;28;20046;-71
2023/01/29 02:09:37;;;;;;;15.27;6.30;;;4.10;99.90;;;;;;4990848;28;20096;-72
2023/01/29 02:12:21;;;;;;;18.38;6.95;;;4.10;99.90;;;;;;4986568;28;20442;-71
2023/01/29 02:14:47;;;;;;;11.38;6.18;;;4.10;99.90;;;;;;4988304;28;20149;-73
2023/01/29 02:17:15;;;;;;;16.35;7.13;;;4.10;99.90;;;;;;4989658;28;20113;-72
2023/01/29 02:20:11;;;;;;;16.52;6.90;;;4.10;99.90;;;;;;4990307;28;20034;-71
2023/01/29 02:23:07;;;;;;;13.95;6.63;;;4.10;99.90;;;;;;4986916;28;20038;-71
2023/01/29 02:25:51;;;;;;;14.40;6.70;;;4.10;99.90;;;;;;4986047;28;20054;-71
2023/01/29 02:28:29;;;;;;;14.18;7.50;;;4.10;99.90;;;;;;4989988;28;20406;-73
2023/01/29 02:31:23;;;;;;;18.65;8.32;;;4.10;99.90;;;;;;4987377;28;20411;-72
2023/01/29 02:34:01;;;;;;;14.48;6.80;;;4.10;99.90;;;;;;4987746;28;20123;-71
2023/01/29 02:36:31;;;;;;;15.75;7.85;;;4.10;99.90;;;;;;4986040;28;20121;-72
2023/01/29 02:39:10;;;;;;;;;;;4.10;99.90;;;;;;4986171;28;20041;-72
2023/01/29 02:42:10;;;;;;;15.73;7.68;;;4.10;99.90;;;;;;4986753;28;19913;-72
2023/01/29 02:45:02;;;;;;;15.63;7.40;;;4.10;99.90;;;;;;4986161;28;20034;-72
2023/01/29 02:47:57;;;;;;;17.05;7.93;;;4.10;99.90;;;;;;4985233;28;20131;-70
2023/01/29 02:50:32;;;;;;;17.73;8.23;;;4.10;99.90;;;;;;4989030;28;20027;-72
2023/01/29 02:53:45;;;;;;;17.55;7.72;;;4.10;99.90;;;;;;4979983;28;20112;-71
2023/01/29 02:56:22;;;;;;;19.33;7.70;;;4.10;99.90;;;;;;5019651;28;20054;-71
2023/01/29 02:58:59;;;;;;;17.08;8.00;;;4.10;99.90;;;;;;5008736;28;20141;-71
2023/01/29 03:01:33;;;;;;;18.80;8.05;;;4.10;99.90;;;;;;5008714;28;20096;-72
2023/01/29 03:04:15;;;;;;;19.83;8.55;;;4.10;99.90;;;;;;5007841;28;20029;-73
2023/01/29 03:06:48;;;;;;;21.13;8.18;;;4.10;99.90;;;;;;5006355;28;20044;-72
2023/01/29 03:09:21;;;;;;;17.42;7.78;;;4.10;99.90;;;;;;5008845;28;20542;-72
2023/01/29 03:11:54;;;;;;;19.05;9.07;;;4.10;99.90;;;;;;5007349;28;20038;-72
2023/01/29 03:15:10;;;;;;;17.13;8.32;;;4.10;99.90;;;;;;5008327;28;20030;-72
2023/01/29 03:17:15;;;;;;;17.02;7.45;;;4.10;99.90;;;;;;5002829;28;20034;-72
2023/01/29 03:19:45;;;;;;;21.25;8.95;;;4.10;99.90;;;;;;5008924;28;20049;-72
2023/01/29 03:22:15;;;;;;;15.20;8.52;;;4.10;99.90;;;;;;5008363;28;20038;-72
2023/01/29 03:33:16;;;;;;;21.20;8.40;;;4.00;99.90;;;;;;5009295;28;20204;-71
2023/01/29 03:35:52;;;;;;;16.20;7.68;;;4.10;99.90;;;;;;5006958;28;20046;-72
2023/01/29 03:38:19;;;;;;;19.33;8.15;;;4.10;99.90;;;;;;5008663;28;20034;-71
2023/01/29 03:41:25;;;;;;;19.80;9.05;;;4.10;99.90;;;;;;5008247;28;20517;-72
2023/01/29 03:43:54;;;;;;;19.90;8.63;;;4.10;99.90;;;;;;5000586;28;20072;-70
2023/01/29 03:46:28;;;;;;;22.95;9.43;;;4.10;99.90;;;;;;5006653;28;20132;-72
2023/01/29 03:49:14;;;;;;;18.42;8.52;;;4.10;99.90;;;;;;5007726;28;20425;-71
2023/01/29 03:52:10;;;;;;;20.33;9.13;;;4.10;99.90;;;;;;5007948;28;20037;-74
2023/01/29 03:55:09;;;;;;;23.60;8.30;;;4.00;99.90;;;;;;5005524;28;20041;-71
2023/01/29 03:57:44;;;;;;;19.25;8.68;;;4.00;99.90;;;;;;5004002;28;20042;-71
2023/01/29 04:00:14;;;;;;;19.27;8.55;;;4.00;99.90;;;;;;5008088;28;20037;-71
2023/01/29 04:03:14;;;;;;;19.38;9.27;;;4.10;99.90;;;;;;5006313;28;20262;-71
2023/01/29 04:05:51;;;;;;;17.95;7.47;;;4.00;99.90;;;;;;5004950;28;20077;-72
2023/01/29 04:08:27;;;;;;;20.13;8.85;;;4.10;99.90;;;;;;5006016;28;20038;-72
2023/01/29 04:10:58;;;;;;;18.02;8.50;;;4.00;99.90;;;;;;4985024;28;20386;-72
2023/01/29 04:13:25;;;;;;;18.40;8.38;;;4.00;99.90;;;;;;4988831;28;20033;-73
2023/01/29 04:15:57;;;;;;;19.35;8.93;;;4.10;99.90;;;;;;4986808;28;20394;-72
2023/01/29 04:18:23;;;;;;;22.65;9.02;;;4.10;99.90;;;;;;4985650;28;20035;-72
2023/01/29 04:20:49;;;;;;;19.92;9.05;;;4.10;99.90;;;;;;4987127;28;20058;-72
2023/01/29 04:23:26;;;;;;;18.67;8.77;;;4.00;99.90;;;;;;4989064;28;20046;-72
2023/01/29 04:26:17;;;;;;;22.02;9.48;;;4.00;99.90;;;;;;4989164;28;20049;-72
2023/01/29 04:29:16;;;;;;;18.55;7.90;;;4.00;99.90;;;;;;4989207;28;20042;-71
2023/01/29 04:31:50;;;;;;;20.60;8.77;;;4.10;99.90;;;;;;4995715;28;20121;-71
2023/01/29 04:34:26;;;;;;;19.58;9.13;;;4.00;99.90;;;;;;5004343;28;20402;-71
2023/01/29 04:37:01;;;;;;;20.95;8.80;;;4.00;99.90;;;;;;5002317;28;20038;-72
2023/01/29 04:39:59;;;;;;;20.88;9.02;;;4.00;99.90;;;;;;4989303;28;20057;-71
2023/01/29 04:43:08;;;;;;;22.13;8.95;;;4.00;99.90;;;;;;4987409;28;20489;-70
2023/01/29 04:46:02;;;;;;;21.75;9.35;;;4.00;99.90;;;;;;4983061;28;20077;-71
2023/01/29 04:48:43;;;;;;;20.65;8.68;;;4.00;99.90;;;;;;4985250;28;20061;-72
2023/01/29 04:51:11;;;;;;;;;;;4.00;99.90;;;;;;4986778;28;20040;-72
2023/01/29 04:54:09;;;;;;;21.60;9.48;;;4.00;99.90;;;;;;4987263;28;20289;-71
2023/01/29 04:56:50;;;;;;;19.55;9.45;;;4.00;99.90;;;;;;4984326;28;20081;-72
2023/01/29 04:59:23;;;;;;;20.25;8.35;;;4.00;99.90;;;;;;4990487;28;20038;-72
2023/01/29 05:01:49;;;;;;;22.38;9.90;;;4.00;99.90;;;;;;4990104;28;20407;-72
2023/01/29 05:04:18;;;;;;;20.77;8.60;;;4.00;99.90;;;;;;4990686;28;20300;-72
2023/01/29 05:06:46;;;;;;;21.48;9.35;;;4.00;99.90;;;;;;4991691;28;20058;-72
2023/01/29 05:09:14;;;;;;;20.73;9.95;;;4.00;99.90;;;;;;4991246;28;20042;-71
2023/01/29 05:11:41;;;;;;;19.35;8.75;;;4.00;99.90;;;;;;4989794;28;20050;-72
2023/01/29 05:14:10;;;;;;;24.83;9.77;;;3.90;99.90;;;;;;4990708;28;20034;-71
2023/01/29 05:16:48;;;;;;;19.13;9.52;;;3.90;99.90;;;;;;4991059;28;20065;-71
2023/01/29 05:19:15;;;;;;;20.70;9.85;;;3.90;99.90;;;;;;4991265;28;20034;-71
2023/01/29 05:21:44;;;;;;;22.23;9.55;;;3.90;99.90;;;;;;4990956;28;20077;-73
2023/01/29 05:24:10;;;;;;;20.17;9.27;;;3.90;99.90;;;;;;4989187;28;20122;-71
2023/01/29 05:29:20;;;;;;;19.08;9.20;;;3.90;99.90;;;;;;4987359;28;20109;-72
2023/01/29 05:31:46;;;;;;;27.33;9.50;;;3.90;99.90;;;;;;4991022;28;20118;-72
2023/01/29 05:34:11;;;;;;;16.67;8.80;;;3.90;99.90;;;;;;4989074;28;20117;-72
2023/01/29 05:36:37;;;;;;;20.15;8.93;;;3.90;99.90;;;;;;4989293;28;20410;-72
2023/01/29 05:39:03;;;;;;;20.23;9.43;;;3.90;99.90;;;;;;4990963;28;20118;-71
2023/01/29 05:41:28;;;;;;;17.85;8.40;;;3.90;99.90;;;;;;4991662;28;20030;-72
2023/01/29 05:43:54;;;;;;;22.13;9.00;;;3.90;99.90;;;;;;4989761;28;20088;-72
2023/01/29 05:46:19;;;;;;;22.42;9.38;;;3.90;99.90;;;;;;4989516;28;20049;-71
2023/01/29 05:48:45;;;;;;;20.63;9.43;;;3.90;99.90;;;;;;4986058;28;20034;-71
2023/01/29 05:51:11;;;;;;;24.80;8.90;;;3.90;99.90;;;;;;4989108;28;20178;-72
2023/01/29 05:53:36;;;;;;;19.83;8.82;;;3.90;99.90;;;;;;4988319;28;20043;-72
2023/01/29 05:56:03;;;;;;;19.02;9.57;;;3.90;99.90;;;;;;4990342;28;20067;-72
2023/01/29 05:58:30;;;;;;;15.65;7.70;;;3.90;99.90;;;;;;4990758;28;20141;-71
2023/01/29 06:00:56;;;;;;;19.73;9.27;;;3.90;99.90;;;;;;4988670;28;20031;-72
2023/01/29 06:03:22;;;;;;;19.48;9.30;;;3.90;99.90;;;;;;4990459;28;20410;-72
2023/01/29 06:05:48;;;;;;;19.35;8.75;;;3.90;99.90;;;;;;4990428;28;20038;-72
2023/01/29 06:08:13;;;;;;;20.25;9.65;;;3.90;99.90;;;;;;4987987;28;20042;-72
2023/01/29 06:10:39;;;;;;;18.17;9.15;;;3.90;99.90;;;;;;4989866;28;20149;-71
2023/01/29 06:13:05;;;;;;;20.90;10.10;;;3.90;99.90;;;;;;4989914;28;20034;-71
2023/01/29 06:15:31;;;;;;;16.70;8.25;;;3.80;99.90;;;;;;4988343;28;20069;-72
2023/01/29 06:17:56;;;;;;;19.85;9.57;;;3.80;99.90;;;;;;4990053;28;20034;-71
2023/01/29 06:20:23;;;;;;;19.23;8.40;;;3.90;99.90;;;;;;4988995;28;20049;-72
2023/01/29 06:22:49;;;;;;;16.20;7.78;;;3.90;99.90;;;;;;4988306;28;20130;-72
2023/01/29 06:25:14;;;;;;;22.25;8.63;;;3.90;99.90;;;;;;4989670;28;20068;-72
2023/01/29 06:27:40;;;;;;;20.35;9.43;;;3.90;99.90;;;;;;4989412;28;20026;-72
2023/01/29 06:30:06;;;;;;;17.85;8.82;;;3.90;99.90;;;;;;4989904;28;20042;-71
2023/01/29 06:32:33;;;;;;;18.42;7.55;;;3.90;99.90;;;;;;4988161;28;20037;-71
2023/01/29 06:34:58;;;;;;;15.95;8.45;;;3.90;99.90;;;;;;4988144;28;20034;-71
2023/01/29 06:37:24;;;;;;;20.13;9.52;;;3.90;99.90;;;;;;4989699;28;20052;-71
2023/01/29 06:39:50;;;;;;;17.20;8.13;;;3.90;99.90;;;;;;4988176;28;20022;-71
2023/01/29 06:42:15;;;;;;;16.70;7.97;;;3.90;99.90;;;;;;4988210;28;20126;-71
2023/01/29 06:44:41;;;;;;;20.25;9.40;;;3.90;99.90;;;;;;4989237;28;20030;-72
2023/01/29 06:47:06;;;;;;;19.63;8.63;;;3.90;99.90;;;;;;4989048;28;20410;-71
2023/01/29 06:49:32;;;;;;;17.80;8.75;;;3.90;99.90;;;;;;4988647;28;20030;-73
2023/01/29 06:51:58;;;;;;;19.15;8.07;;;3.90;99.90;;;;;;4989625;28;20034;-72
2023/01/29 06:54:23;;;;;;;19.38;8.30;;;3.90;99.90;;;;;;4989736;28;20101;-71
2023/01/29 06:56:49;;;;;;;20.33;7.70;;;3.90;99.90;;;;;;4989525;28;20044;-71
2023/01/29 06:59:14;;;;;;;17.20;8.38;;;3.90;99.90;;;;;;4987800;28;20042;-71
2023/01/29 07:01:42;;;;;;;15.50;8.05;;;4.00;99.90;;;;;;4990094;28;20433;-71
2023/01/29 07:04:09;;;;;;;20.13;8.85;;;3.90;99.90;;;;;;5000688;28;20117;-71
2023/01/29 07:06:34;;;;;;;13.80;7.40;;;3.90;99.90;;;;;;5019185;28;20157;-73
2023/01/29 07:09:00;;;;;;;16.88;8.00;;;3.90;99.90;;;;;;5002253;28;20038;-72
2023/01/29 07:11:25;;;;;;;17.00;7.38;;;3.90;99.90;;;;;;5004032;28;20038;-72
2023/01/29 07:13:51;;;;;;;17.88;7.85;;;4.00;99.90;;;;;;5001224;28;20145;-72
2023/01/29 07:16:17;;;;;;;14.98;7.28;;;4.00;99.90;;;;;;5005688;28;20517;-72
2023/01/29 07:18:43;;;;;;;17.83;7.95;;;4.00;99.90;;;;;;5004689;28;20045;-71
2023/01/29 07:21:09;;;;;;;17.58;8.32;;;3.90;99.90;;;;;;5005472;28;20034;-72
2023/01/29 07:23:34;;;;;;;17.35;8.20;;;3.90;99.90;;;;;;5003213;28;20038;-72
2023/01/29 07:26:02;;;;;;;15.88;7.50;;;3.90;99.90;;;;;;5010949;28;20034;-72
2023/01/29 07:28:28;;;;;;;16.42;8.32;;;4.00;99.90;;;;;;5003517;28;20568;-72
2023/01/29 07:30:59;;;;;;;19.65;8.20;;;4.00;99.90;;;;;;5007480;28;20056;-71
2023/01/29 07:33:25;;;;;;;15.13;7.70;;;4.00;99.90;;;;;;5008191;28;20120;-71
2023/01/29 07:35:51;;;;;;;18.40;7.88;;;3.90;99.90;;;;;;5007294;28;20176;-72
2023/01/29 07:38:17;;;;;;;18.25;8.15;;;3.90;99.90;;;;;;5006107;28;20045;-72
2023/01/29 07:40:43;;;;;;;16.55;7.75;;;3.90;99.90;;;;;;5006848;28;20116;-71
2023/01/29 07:43:09;;;;;;;15.57;7.72;;;4.00;99.90;;;;;;5007692;28;20172;-71
2023/01/29 07:45:36;;;;;;;14.93;7.10;;;4.00;99.90;;;;;;5007206;28;20506;-71
2023/01/29 07:48:03;;;;;;;16.48;7.70;;;4.00;99.90;;;;;;5006709;28;20041;-74
2023/01/29 07:50:30;;;;;;;15.50;7.80;;;3.90;99.90;;;;;;5003419;28;20049;-71
2023/01/29 07:52:56;;;;;;;14.80;7.60;;;3.90;99.90;;;;;;5007114;28;20041;-71
2023/01/29 07:55:22;;;;;;;14.48;7.10;;;4.00;99.90;;;;;;5021237;28;20048;-71
2023/01/29 07:57:54;;;;;;;20.52;8.52;;;4.00;99.90;;;;;;5005091;28;20077;-71
2023/01/29 08:00:20;;;;;;;18.02;7.78;;;4.00;99.90;;;;;;5004597;28;20095;-71
2023/01/29 08:02:46;;;;;;;15.48;7.13;;;4.00;99.90;;;;;;5012559;28;20112;-71
2023/01/29 08:05:11;;;;;;;15.48;7.43;;;4.10;99.90;;;;;;5009642;28;20050;-70
2023/01/29 08:07:37;;;;;;;15.63;7.32;;;4.10;99.90;;;;;;5003437;28;20058;-71
2023/01/29 08:10:03;;;;;;;16.55;6.90;;;4.10;99.90;;;;;;5005730;28;20046;-70
2023/01/29 08:12:29;;;;;;;15.23;7.35;;;4.20;99.90;;;;;;5006484;28;20041;-71
2023/01/29 08:14:54;;;;;;;16.95;7.15;;;4.10;99.90;;;;;;4999681;28;20104;-69
2023/01/29 08:17:20;;;;;;;17.25;7.78;;;4.20;99.90;;;;;;5004205;28;20405;-71
2023/01/29 08:19:45;;;;;;;18.65;7.30;;;4.20;99.90;;;;;;5002372;28;20042;-70
2023/01/29 08:22:11;;;;;;;18.52;7.88;;;4.10;99.90;;;;;;4998821;28;20046;-70
2023/01/29 08:24:37;;;;;;;16.42;7.50;;;4.20;99.90;;;;;;5000348;28;20037;-70
2023/01/29 08:27:03;;;;;;;14.95;6.88;;;4.20;99.90;;;;;;5002737;28;20136;-70
2023/01/29 08:29:28;;;;;;;18.40;8.20;;;4.20;99.90;;;;;;4999612;28;20203;-71
2023/01/29 08:31:54;;;;;;;18.30;8.13;;;4.20;99.90;;;;;;5005155;28;20116;-70
2023/01/29 08:34:19;;;;;;;14.90;7.15;;;4.20;99.90;;;;;;5006935;28;20544;-71
2023/01/29 08:36:46;;;;;;;16.42;6.82;;;4.20;99.90;;;;;;5002354;28;20069;-71
2023/01/29 08:39:11;;;;;;;17.77;7.50;;;4.20;99.90;;;;;;5008668;28;20037;-70
2023/01/29 08:41:37;;;;;;;15.20;7.13;;;4.30;99.90;;;;;;5021024;28;20038;-70
2023/01/29 08:44:03;;;;;;;16.77;6.75;;;4.30;99.90;;;;;;5006156;28;20466;-71
2023/01/29 08:46:30;;;;;;;12.45;6.57;;;4.30;99.90;;;;;;5022074;28;20044;-71
2023/01/29 08:48:55;;;;;;;15.07;6.40;;;4.30;99.90;;;;;;5009090;28;20412;-71
2023/01/29 08:51:21;;;;;;;17.15;7.47;;;4.30;99.90;;;;;;5006854;28;20046;-71
2023/01/29 08:53:47;;;;;;;15.82;7.38;;;4.30;99.90;;;;;;5005765;28;20104;-70
2023/01/29 08:56:12;;;;;;;16.13;7.10;;;4.30;99.90;;;;;;5007925;28;20045;-71
2023/01/29 08:58:38;;;;;;;12.35;6.25;;;4.40;99.90;;;;;;4999857;28;20026;-71
2023/01/29 09:01:09;;;;;;;18.80;7.88;;;4.40;99.90;;;;;;5004063;28;20038;-71
2023/01/29 09:03:35;;;;;;;13.88;6.38;;;4.50;99.90;;;;;;5009097;28;20052;-71
2023/01/29 09:06:00;;;;;;;16.40;8.15;;;4.40;99.90;;;;;;5002868;28;20045;-70
2023/01/29 09:08:26;;;;;;;15.30;7.38;;;4.40;99.90;;;;;;5004928;28;20040;-71
2023/01/29 09:10:51;;;;;;;14.68;7.07;;;4.50;99.90;;;;;;5012475;28;20045;-70
2023/01/29 09:13:17;;;;;;;16.67;7.40;;;4.50;99.90;;;;;;4998517;28;20124;-70
2023/01/29 09:15:43;;;;;;;15.32;6.88;;;4.50;99.90;;;;;;5006432;28;20033;-70
2023/01/29 09:18:08;;;;;;;14.77;7.28;;;4.50;99.90;;;;;;5005651;28;20034;-71
2023/01/29 09:20:36;;;;;;;15.98;7.05;;;4.60;99.90;;;;;;5024359;28;20521;-73
2023/01/29 09:23:07;;;;;;;17.48;7.15;;;4.60;99.90;;;;;;5004199;28;20033;-70
2023/01/29 09:25:33;;;;;;;13.63;6.60;;;4.70;99.90;;;;;;5003843;28;20067;-71
2023/01/29 09:27:58;;;;;;;14.45;6.78;;;4.80;99.90;;;;;;5021376;28;20054;-72
2023/01/29 09:30:24;;;;;;;17.25;6.93;;;4.70;99.90;;;;;;5006219;28;20045;-71
2023/01/29 09:32:50;;;;;;;17.08;7.47;;;4.70;99.90;;;;;;5002564;28;20180;-72
2023/01/29 09:35:15;;;;;;;16.30;6.65;;;4.80;99.90;;;;;;5007220;28;20037;-70
2023/01/29 09:37:41;;;;;;;19.13;7.68;;;4.80;99.90;;;;;;5005917;28;20045;-73
2023/01/29 09:40:24;;;;;;;14.40;6.55;;;4.70;99.90;;;;;;5003610;28;20030;-71
2023/01/29 09:42:58;;;;;;;15.88;7.15;;;4.80;99.90;;;;;;4991129;28;20042;-71
2023/01/29 09:45:27;;;;;;;14.90;6.75;;;4.80;99.90;;;;;;5005033;28;20085;-71
2023/01/29 09:47:57;;;;;;;14.88;7.28;;;4.80;99.90;;;;;;5005693;28;20042;-71
2023/01/29 09:50:38;;;;;;;14.30;6.72;;;4.80;99.90;;;;;;5002884;28;20042;-72
2023/01/29 09:53:15;;;;;;;16.83;7.75;;;4.80;99.90;;;;;;5000132;28;20399;-73
2023/01/29 09:56:02;;;;;;;19.13;8.07;;;4.90;99.90;;;;;;5002997;28;20038;-71
2023/01/29 09:58:39;;;;;;;15.77;7.22;;;4.90;99.90;;;;;;5007999;28;20476;-72
2023/01/29 10:01:19;;;;;;;20.67;7.20;;;4.80;99.90;;;;;;4999087;28;20030;-72
2023/01/29 10:04:20;;;;;;;19.38;7.72;;;4.80;99.90;;;;;;5023204;28;20036;-73
2023/01/29 10:07:04;;;;;;;16.60;7.55;;;4.80;99.90;;;;;;4981491;28;20042;-72
2023/01/29 10:10:02;;;;;;;17.08;7.40;;;4.90;99.90;;;;;;4998178;28;20173;-72
2023/01/29 10:13:09;;;;;;;17.80;8.40;;;5.00;99.90;;;;;;4993522;28;20101;-68
2023/01/29 10:15:49;;;;;;;17.95;8.30;;;5.00;99.90;;;;;;5005244;28;20042;-72
2023/01/29 10:18:39;;;;;;;16.15;7.53;;;5.10;99.90;;;;;;5000437;28;20042;-71
2023/01/29 10:21:26;;;;;;;16.27;8.30;;;5.10;99.90;;;;;;5022701;28;20034;-72
2023/01/29 10:24:18;;;;;;;22.08;8.18;;;5.10;99.90;;;;;;5008000;28;20049;-70
2023/01/29 10:26:43;;;;;;;17.15;7.53;;;5.10;99.90;;;;;;5024012;28;20125;-71
2023/01/29 10:29:17;;;;;;;18.25;8.45;;;5.10;99.90;;;;;;5009692;28;20124;-71
2023/01/29 10:31:45;;;;;;;19.10;7.82;;;5.00;99.90;;;;;;5008017;28;20121;-70
2023/01/29 10:34:31;;;;;;;20.77;8.80;;;5.10;99.90;;;;;;5009903;28;20065;-70
2023/01/29 10:36:56;;;;;;;19.48;9.27;;;5.10;99.90;;;;;;5003743;28;20030;-71
2023/01/29 10:39:24;;;;;;;19.73;8.85;;;5.00;99.90;;;;;;5010412;28;20042;-71
2023/01/29 10:42:18;;;;;;;23.20;8.38;;;5.00;99.90;;;;;;5011919;28;20142;-71
2023/01/29 10:44:55;;;;;;;20.67;8.45;;;5.00;99.90;;;;;;5008153;28;20744;-70
2023/01/29 10:47:36;;;;;;;23.52;9.95;;;5.00;99.90;;;;;;5005609;28;20034;-70
2023/01/29 10:50:17;;;;;;;21.52;9.02;;;5.00;99.90;;;;;;4992645;28;20082;-71
2023/01/29 10:53:06;;;;;;;21.95;9.93;;;5.00;99.90;;;;;;4998415;28;20072;-71
2023/01/29 10:55:50;;;;;;;22.20;9.45;;;5.00;99.90;;;;;;4997438;28;20410;-71
2023/01/29 10:58:24;;;;;;;20.77;8.70;;;5.00;99.90;;;;;;5001940;28;20048;-70
2023/01/29 11:00:51;;;;;;;26.10;10.10;;;5.00;99.90;;;;;;5006851;28;20042;-71
2023/01/29 11:03:24;;;;;;;21.42;8.50;;;5.00;99.90;;;;;;5017666;28;20026;-71
2023/01/29 11:06:16;;;;;;;22.75;9.10;;;5.00;99.90;;;;;;5004988;28;20056;-71
2023/01/29 11:08:48;;;;;;;20.40;9.18;;;5.00;99.90;;;;;;5005155;28;20440;-71
2023/01/29 11:11:18;;;;;;;19.85;9.18;;;5.10;99.90;;;;;;5003644;28;20048;-71
2023/01/29 11:13:57;;;;;;;18.95;8.45;;;5.10;99.90;;;;;;5005133;28;20075;-71
2023/01/29 11:16:24;;;;;;;18.73;9.10;;;5.10;99.90;;;;;;5003380;28;20174;-71
2023/01/29 11:18:53;;;;;;;17.38;9.40;;;5.10;99.90;;;;;;5017343;28;20066;-71
2023/01/29 11:21:19;;;;;;;21.23;9.07;;;5.10;99.90;;;;;;5005901;28;20029;-71
2023/01/29 11:23:45;;;;;;;22.30;9.52;;;5.10;99.90;;;;;;5001573;28;20405;-73
2023/01/29 11:26:15;;;;;;;20.45;9.88;;;5.10;99.90;;;;;;5006209;28;20050;-71
2023/01/29 11:28:46;;;;;;;19.00;9.90;;;5.10;99.90;;;;;;5003394;28;20041;-71
2023/01/29 11:31:24;;;;;;;21.10;9.52;;;5.00;99.90;;;;;;5003438;28;20042;-70
2023/01/29 11:34:00;;;;;;;23.73;10.02;;;5.10;99.90;;;;;;5003637;28;20037;-71
2023/01/29 11:36:34;;;;;;;20.63;9.30;;;5.00;99.90;;;;;;5002317;28;20785;-70
2023/01/29 11:39:22;;;;;;;21.63;10.52;;;5.10;99.90;;;;;;4999224;28;20465;-71
2023/01/29 11:41:59;;;;;;;19.13;9.75;;;5.20;99.90;;;;;;5004709;28;20184;-71
2023/01/29 11:44:32;;;;;;;17.50;8.20;;;5.10;99.90;;;;;;4997518;28;20537;-71
2023/01/29 11:47:18;;;;;;;20.15;9.15;;;5.10;99.90;;;;;;4996740;28;20061;-70
2023/01/29 11:49:52;;;;;;;26.10;9.95;;;5.20;99.90;;;;;;5003791;28;20096;-70
2023/01/29 11:52:21;;;;;;;19.67;9.40;;;5.10;99.90;;;;;;5004949;28;20050;-71
2023/01/29 11:54:49;;;;;;;20.92;9.27;;;5.10;99.90;;;;;;5005595;28;20502;-71
2023/01/29 11:57:27;;;;;;;21.55;10.30;;;5.10;99.90;;;;;;5005973;28;20065;-71
2023/01/29 11:59:55;;;;;;;18.88;8.98;;;5.10;99.90;;;;;;5007613;28;20037;-71
2023/01/29 12:02:30;;;;;;;26.80;9.23;;;5.10;99.90;;;;;;5006785;28;20041;-71
2023/01/29 12:05:00;;;;;;;24.00;9.30;;;5.10;99.90;;;;;;5018477;28;20034;-72
2023/01/29 12:07:27;;;;;;;21.55;10.40;;;5.10;99.90;;;;;;5007838;28;20125;-71
2023/01/29 12:09:55;;;;;;;23.75;10.07;;;5.10;99.90;;;;;;5008108;28;20037;-71
2023/01/29 12:12:34;;;;;;;20.05;9.75;;;5.20;99.90;;;;;;5004037;28;20030;-71
2023/01/29 12:15:05;;;;;;;20.10;9.07;;;5.20;99.90;;;;;;5000667;28;20054;-71
2023/01/29 12:17:34;;;;;;;21.23;9.90;;;5.30;99.90;;;;;;5005750;28;20041;-71
2023/01/29 12:20:10;;;;;;;20.63;10.20;;;5.30;99.90;;;;;;5006241;28;20471;-71
2023/01/29 12:22:45;;;;;;;22.23;10.45;;;5.30;99.90;;;;;;5006675;28;20461;-71
2023/01/29 12:25:29;;;;;;;18.67;9.10;;;5.30;99.90;;;;;;5006485;28;20132;-71
2023/01/29 12:28:06;;;;;;;20.02;9.00;;;5.30;99.90;;;;;;4976178;28;20045;-70
2023/01/29 12:31:00;;;;;;;20.10;9.45;;;5.30;99.90;;;;;;4985453;28;20471;-72
2023/01/29 12:34:00;;;;;;;18.85;8.98;;;5.40;99.90;;;;;;4993720;28;20035;-71
2023/01/29 12:36:37;;;;;;;17.35;8.57;;;5.40;99.90;;;;;;4964902;28;20046;-71
2023/01/29 12:39:04;;;;;;;21.05;9.82;;;5.40;99.90;;;;;;4978533;28;20094;-70
2023/01/29 12:41:52;;;;;;;21.90;10.25;;;5.40;99.90;;;;;;4971678;28;20112;-71
2023/01/29 12:44:30;;;;;;;20.80;9.95;;;5.40;99.90;;;;;;4973883;28;20047;-71
2023/01/29 12:46:59;;;;;;;18.80;9.00;;;5.40;99.90;;;;;;4987531;28;20081;-71
2023/01/29 12:49:29;;;;;;;20.67;9.38;;;5.40;99.90;;;;;;4974452;28;20038;-70
2023/01/29 12:52:08;;;;;;;20.02;9.32;;;5.40;99.90;;;;;;4974227;28;20038;-71
2023/01/29 12:54:41;;;;;;;20.52;9.32;;;5.40;99.90;;;;;;4990332;28;20093;-71
2023/01/29 12:57:17;;;;;;;22.75;9.68;;;5.40;99.90;;;;;;4983591;28;20042;-70
2023/01/29 12:59:53;;;;;;;18.38;8.45;;;5.50;99.90;;;;;;4982488;28;20034;-70
2023/01/29 13:02:40;;;;;;;20.65;9.77;;;5.60;99.90;;;;;;4984334;28;20089;-69
2023/01/29 13:05:14;;;;;;;17.30;8.27;;;5.70;99.90;;;;;;4978465;28;20059;-71
2023/01/29 13:07:46;;;;;;;18.25;8.85;;;5.80;99.90;;;;;;4977780;28;20045;-72
2023/01/29 13:10:22;;;;;;;15.20;7.90;;;5.90;99.90;;;;;;4986117;28;20037;-71
2023/01/29 13:12:58;;;;;;;20.67;9.05;;;5.90;99.90;;;;;;4986529;28;20026;-71
2023/01/29 13:15:35;;;;;;;16.83;8.32;;;6.00;99.90;;;;;;4983689;28;20505;-71
2023/01/29 13:18:17;;;;;;;17.90;8.75;;;6.00;99.90;;;;;;4983721;28;20031;-71
2023/01/29 13:20:43;;;;;;;17.60;8.50;;;6.00;99.90;;;;;;4981306;28;20073;-71
2023/01/29 13:23:26;;;;;;;20.15;9.70;;;6.10;99.90;;;;;;4986588;28;20030;-71
2023/01/29 13:25:53;;;;;;;17.23;8.25;;;6.10;99.90;;;;;;4989817;28;20395;-70
2023/01/29 13:28:22;;;;;;;16.50;8.70;;;6.10;99.90;;;;;;4987978;28;20053;-70
2023/01/29 13:31:19;;;;;;;17.65;8.30;;;6.10;99.90;;;;;;4989783;28;20572;-70
2023/01/29 13:34:11;;;;;;;18.75;8.35;;;6.00;99.90;;;;;;4990068;28;20058;-70
2023/01/29 13:36:45;;;;;;;18.27;9.20;;;6.00;99.90;;;;;;4983055;28;20074;-71
2023/01/29 13:39:23;;;;;;;18.33;8.02;;;6.10;99.90;;;;;;4987108;28;20554;-71
2023/01/29 13:41:51;;;;;;;17.42;8.60;;;6.00;99.90;;;;;;4986720;28;20038;-70
2023/01/29 13:44:34;;;;;;;20.58;8.55;;;6.00;99.90;;;;;;4985372;28;20061;-70